Tiempo atmosférico en la estación meteorológica de San Fernando, Cádiz (28 m.)



Fecha
DESCASC
Temp. máxima en grados centígrados (hora)
DESCASC
Temp. mínima en grados centígrados (hora)
DESCASC
Temp. media en grados centígrados
DESCASC
Racha de viento máxima en m/sg (hora)
DESCASC
Velocidad máxima media en intervalos de 10 minutos(hora)
DESCASC
Precipitaciones diarias en mm
DESCASC
Precipitaciones de 00:00 a 06:00 en mm
DESCASC
Precipitaciones de 06:00 a 12:00 en mm
DESCASC
Precipitaciones de 12:00 a 18:00 en mm
DESCASC
Precipitaciones de 18:00 a 24:00 en mm
DESCASC
06-07-2020 38 (13:10) 24.1 (07:20) 31.1 10.28 (01:10) 4.72 (01:10) 0 0 0 0 0
05-07-2020 35.7 (16:50) 23.6 (07:30) 29.7 14.72 (14:30) 8.06 (13:50) 0 0 0 0 0
04-07-2020 33.2 (14:30) 19.9 (07:10) 26.6 10.28 (13:00) 5 (12:30) 0 0 0 0 0
03-07-2020 24.3 (19:10) 19.8 (06:30) 22 7.78 (16:50) 5 (16:40) 0 0 0 0 0
02-07-2020 26.6 (17:00) 20.8 (00:00) 23.7 9.44 (19:40) 6.39 (18:30) 0 0 0 0 0
01-07-2020 25.3 (16:20) 20.2 (00:00) 22.8 7.22 (10:30) 4.17 (17:20) 0 0 0 0 0
30-06-2020 28.2 (15:30) 21.8 (00:00) 25 11.11 (12:20) 6.11 (11:50) 0 0 0 0 0
29-06-2020 28.5 (15:50) 22.5 (00:00) 25.5 7.5 (23:59) 3.89 (16:10) 0 0 0 0 0
28-06-2020 28.6 (15:00) 19.4 (00:00) 24 6.67 (16:00) 4.17 (18:30) 0 0 0 0 0
27-06-2020 25 (16:10) 17.7 (00:00) 21.4 8.06 (17:20) 5.56 (17:00) 0 0 0 0 0
26-06-2020 24 (14:50) 20.1 (00:00) 22.1 8.61 (17:50) 5.28 (18:00) 0 0 0 0 0
25-06-2020 27.1 (14:30) 20.8 (00:00) 23.9 9.44 (11:00) 5 (16:20) 0 0 0 0 0
24-06-2020 27.4 (16:50) 21.7 (00:00) 24.6 10.83 (11:20) 5.83 (11:40) 0 0 0 0 0
23-06-2020 34.3 (15:30) 24.8 (00:00) 29.5 16.94 (19:50) 8.33 (15:50) 0 0 0 0 0
22-06-2020 36.1 (15:30) 22.2 (00:00) 29.1 16.67 (16:10) 8.33 (17:30) 0 0 0 0 0
21-06-2020 29.2 (12:20) 20.1 (00:00) 24.7 8.89 (17:10) 5.83 (17:10) 0 0 0 0 0
20-06-2020 28.9 (11:40) 17.9 (00:00) 23.4 7.22 (16:10) 5 (16:30) 0 0 0 0 0
19-06-2020 22.6 (15:40) 18.5 (00:00) 20.6 7.22 (02:00) 4.17 (16:00) 0 0 0 0 0
18-06-2020 22.7 (18:30) 18.4 (00:00) 20.6 9.17 (19:00) 6.11 (18:40) 0 0 0 0 0
17-06-2020 23 (16:10) 19.3 (00:00) 21.1 8.89 (19:00) 5.83 (19:40) 0 0 0 0 0
16-06-2020 23.4 (16:40) 19.4 (00:00) 21.4 12.78 (14:50) 8.89 (15:40) 0 0 0 0 0
15-06-2020 22.8 (17:20) 18 (00:00) 20.4 9.17 (20:00) 6.11 (19:40) 0 0 0 0 0
14-06-2020 22.7 (14:30) 18.6 (00:00) 20.7 11.39 (16:40) 7.22 (16:40) 0 0 0 0 0
13-06-2020 22.1 (15:50) 16.8 (00:00) 19.4 10.56 (00:20) 6.39 (00:20) 0 0 0 0 0
12-06-2020 21.6 (16:00) 16.7 (00:00) 19.2 12.22 (23:30) 8.06 (01:40) 1.4 1.4 0 0 0
11-06-2020 21.8 (18:50) 17.9 (00:00) 19.8 14.17 (21:00) 9.17 (23:50) 0 0 0 0 0
10-06-2020 23.9 (13:10) 17.1 (00:00) 20.5 8.33 (17:40) 5.28 (17:40) 0 0 0 0 0

Gráficas

Temp. máximas Temp. mínimas Temp. medias Precipitaciones Rachas de viento máximas Velocidades máximas media en intervalos de 10 minutos

Datos horarios

Fecha y hora oficial Temperatura (ºC) Velocidad del viento (km/h) Dirección del viento Racha (km/h) Dirección de racha Precipitación (mm) Presión (hPa) Tendencia (hPa) Humedad (%)
2020-07-09 23:00:00 21 7 Sudoeste 10 Sudoeste 0 1011.1 0.4 79
2020-07-09 22:00:00 21.4 5 Sudoeste 13 Oeste 0 1010.6 -0.3 76
2020-07-09 21:00:00 22.7 8 Oeste 17 Oeste 0 1010.7 -0.7 70
2020-07-09 20:00:00 23.6 11 Oeste 20 Oeste 0 1010.7 -- 65
2020-07-09 19:00:00 24.4 10 Oeste 22 Sudoeste 0 1010.9 -- 62
2020-07-09 18:00:00 24.2 12 Oeste 24 Sudoeste 0 1011.4 -- 62
2020-07-09 17:00:00 24.1 11 Oeste 30 Sudoeste 0 1012 -- 61
2020-07-09 16:00:00 24.3 12 Sudoeste 24 Sudoeste 0 1012.6 -- 61
2020-07-09 15:00:00 24.3 11 Sudoeste 28 Oeste 0 1012.9 -- 61
2020-07-09 14:00:00 25.1 8 Sudoeste 26 Sudoeste 0 1013.4 -- 58
2020-07-09 13:00:00 24.6 10 Sur 24 Sudoeste 0 1013.7 -- 61
2020-07-09 12:00:00 23.3 8 Sudoeste 23 Sur 0 1013.4 -- 64
2020-07-09 11:00:00 23 11 Sur 23 Sudoeste 0 1013.3 -- 65
2020-07-09 10:00:00 22.2 8 Sur 24 Sur 0 1013.5 -- 69
2020-07-09 09:00:00 21.5 10 Sur 25 Sur 0 1012.7 -- 72
2020-07-09 08:00:00 21.2 9 Sur 22 Sudoeste 0 1012.1 -- 75
2020-07-09 07:00:00 20.9 9 Sudoeste 23 Sur 0 1012 -- 76
2020-07-09 06:00:00 21 9 Sudoeste 23 Sur 0 1011.9 -- 77
2020-07-09 05:00:00 21.2 10 Sudoeste 23 Sur 0 1011.9 -- 78
2020-07-09 04:00:00 21.2 9 Sudoeste 22 Sudoeste 0 1011.9 -- 80
2020-07-09 03:00:00 21.2 7 Sudoeste 23 Sur 0 1012.1 -- 83
2020-07-09 02:00:00 21.2 8 Sudoeste 21 Sudoeste 0 1012.3 -- 85
2020-07-09 01:00:00 21.5 5 Sudoeste 18 Sudoeste 0 1012.4 -- 86
2020-07-09 00:00:00 21.6 6 Sudoeste 15 Sudoeste 0 1012.2 -- 85
2020-07-08 23:00:00 21.8 8 Sudoeste 16 Oeste 0 1011.6 -- 83
2020-07-08 22:00:00 22.1 9 Sudoeste 22 Oeste 0 1010.9 -- 82
2020-07-08 21:00:00 23.6 14 Oeste 26 Oeste 0 1010.4 -- 76
2020-07-08 20:00:00 24.9 12 Sudoeste 26 Oeste 0 1010.2 -- 69
2020-07-08 19:00:00 25.2 18 Oeste 29 Oeste 0 1010 -- 68
2020-07-08 18:00:00 25.5 19 Oeste 29 Oeste 0 1010.3 -- 67
2020-07-08 17:00:00 26.8 17 Oeste 29 Sudoeste 0 1010.3 -- 62
2020-07-08 16:00:00 26.8 17 Oeste 32 Oeste 0 1010.3 -- 61
2020-07-08 15:00:00 24.9 19 Oeste 32 Oeste 0 1010.2 -- 70
2020-07-08 14:00:00 25.8 20 Oeste 29 Oeste 0 1010.2 -- 70
2020-07-08 13:00:00 25.8 13 Oeste 19 Oeste 0 1010.2 -- 71
2020-07-08 12:00:00 26.5 9 Oeste 18 Oeste 0 1010 -- 68
2020-07-08 11:00:00 26.4 6 Sudoeste 21 Sudoeste 0 1009.5 -- 73
2020-07-08 10:00:00 26.8 8 Sur 16 Sur 0 1009.1 -- 67
2020-07-08 09:00:00 25.1 6 Sur 17 Sur 0 1008.4 -- 72
2020-07-08 08:00:00 25.5 5 Sudeste 17 Oeste 0 1007.8 -- 46
2020-07-08 07:00:00 25.8 2 Sudeste 18 Sudeste 0 1007.4 -- 45
2020-07-08 06:00:00 27.4 11 Este 22 Este 0 1006.9 -- 37
2020-07-08 05:00:00 27.2 12 Este 24 Este 0 1007.1 -- 43
2020-07-08 04:00:00 27.6 6 Este 10 Este 0 1007.6 -- 46
2020-07-08 03:00:00 27.3 4 Norte 11 Norte 0 1008.1 -- 48
2020-07-08 02:00:00 27.5 5 Noroeste 10 Noroeste 0 1008.5 -- 49
2020-07-08 01:00:00 27.8 4 Noroeste 8 Norte 0 1008.7 -- 50
2020-07-08 00:00:00 28.4 4 Noroeste 11 Noroeste 0 1008.7 -- 50
2020-07-07 23:00:00 29.7 5 Noroeste 11 Noroeste 0 1008.6 -- 41
2020-07-07 22:00:00 28.9 3 Nordeste 16 Noroeste 0 1008.3 -- 45
2020-07-07 21:00:00 29 10 Noroeste 15 Noroeste 0 1008.5 -- 56
2020-07-07 20:00:00 29.4 8 Noroeste 18 Oeste 0 1008.2 -0.7 52
2020-07-07 19:00:00 30.4 11 Oeste 22 Oeste 0 1008.3 -1.8 48
2020-07-07 18:00:00 32.3 12 Oeste 18 Oeste 0 1008.6 -2.2 43
2020-07-07 17:00:00 33 5 Noroeste 15 Oeste 0 1008.9 -2.1 39
2020-07-07 16:00:00 31.5 10 Oeste 20 Oeste 0 1010.1 -0.7 37
2020-07-07 15:00:00 29.9 13 Oeste 21 Sudoeste 0 1010.8 0.2 41
2020-07-07 14:00:00 29.1 14 Oeste 23 Oeste 0 1011 0.8 47
2020-07-07 13:00:00 29.4 14 Oeste 21 Oeste 0 1010.8 0.5 45
2020-07-07 12:00:00 30.1 11 Sudoeste 18 Sudoeste 0 1010.6 0.6 45
2020-07-07 11:00:00 31.8 5 Este 12 Este 0 1010.2 0.7 36
2020-07-07 10:00:00 30.5 0 Calma 8 Este 0 1010.3 0.9 34
2020-07-07 09:00:00 27.2 0 Calma 11 Este 0 1010 0.9 35
2020-07-07 08:00:00 26 5 Este 13 Sudeste 0 1009.5 0.1 35
2020-07-07 07:00:00 26.2 9 Sudeste 19 Sudeste 0 1009.4 -- 35
2020-07-07 06:00:00 26.7 12 Este 21 Este 0 1009.1 -- 33
2020-07-07 05:00:00 26.1 11 Este 20 Este 0 1009.4 -- 34
2020-07-07 04:00:00 25.9 13 Sudeste 23 Sudeste 0 1009.9 -- 33
2020-07-07 03:00:00 26.3 11 Este 22 Este 0 1010.3 -- 34
2020-07-07 02:00:00 26.3 9 Este 13 Este 0 1011 -- 35
2020-07-07 01:00:00 27.3 4 Este 12 Este 0 1011.1 -- 37
2020-07-07 00:00:00 27.9 6 Este 11 Este 0 1011 -- 44
2020-07-06 23:00:00 27.9 6 Este 13 Este 0 1011 -- 53
2020-07-06 22:00:00 27.6 5 Este 10 Oeste 0 1010.3 -- 58
2020-07-06 21:00:00 27.1 6 Oeste 15 Oeste 0 1010.5 -- 64
2020-07-06 20:00:00 28.2 8 Oeste 20 Oeste 0 1010.3 -- 62
2020-07-06 19:00:00 27.9 14 Oeste 21 Oeste 0 1010.7 -- 65
2020-07-06 18:00:00 30 14 Oeste 23 Oeste 0 1010.9 -- 51
2020-07-06 17:00:00 30.3 13 Oeste 21 Sudoeste 0 1010.9 -- 50
2020-07-06 16:00:00 30.1 14 Oeste 23 Oeste 0 1011.3 -- 49
2020-07-06 15:00:00 30.7 14 Oeste 23 Oeste 0 1011.7 -- 46
2020-07-06 14:00:00 30.9 13 Sudoeste 22 Sudoeste 0 1011.9 -- 43
2020-07-06 13:00:00 37 4 Este 17 Nordeste 0 1011.8 -- 27
2020-07-06 12:00:00 34.8 6 Este 19 Este 0 1011.9 -- 28
2020-07-06 11:00:00 32.2 9 Nordeste 21 Este 0 1012 -- 30
2020-07-06 10:00:00 29.8 12 Este 18 Este 0 1012.2 -- 37
2020-07-06 09:00:00 26.8 3 Este 17 Este 0 1012 -- 39
2020-07-06 08:00:00 24.6 6 Este 21 Sudeste 0 1011.6 -- 41
2020-07-06 07:00:00 24.7 11 Este 24 Sudeste 0 1011.4 -- 41
2020-07-06 06:00:00 24.5 11 Este 28 Este 0 1011.5 -- 43
2020-07-06 05:00:00 24.8 9 Este 22 Este 0 1012 -- 43
2020-07-06 04:00:00 25 13 Este 24 Sudeste 0 1012.2 -- 44
2020-07-06 03:00:00 25.1 13 Este 26 Este 0 1012.8 -- 45
2020-07-06 02:00:00 25.8 15 Este 37 Este 0 1013.1 -- 43
2020-07-06 01:00:00 26.1 13 Este 35 Este 0 1013.1 -- 43
2020-07-06 00:00:00 26.3 16 Este 36 Sudeste 0 1012.6 -- 46
2020-07-05 23:00:00 26.9 16 Este 32 Este 0 1012.1 -- 44
2020-07-05 22:00:00 28 17 Este 35 Sudeste 0 1011.7 -- 41
2020-07-05 21:00:00 31.3 11 Este 31 Este 0 1011.5 -- 37
2020-07-05 20:00:00 33 16 Este 37 Este 0 1011.3 -- 34
2020-07-05 19:00:00 34 18 Este 39 Sudeste 0 1011.3 -- 33
2020-07-05 18:00:00 34.4 20 Este 42 Este 0 1011.9 -- 32
2020-07-05 17:00:00 35 21 Este 48 Este 0 1012.1 -- 32
2020-07-05 16:00:00 34.9 22 Este 47 Este 0 1012.3 -- 32
2020-07-05 15:00:00 34.7 26 Este 53 Este 0 1012.4 -- 33
2020-07-05 14:00:00 34 25 Este 52 Este 0 1013.1 -- 33
2020-07-05 13:00:00 33.4 21 Este 45 Este 0 1013.7 -- 36
2020-07-05 12:00:00 32 21 Este 42 Sudeste 0 1013.7 -- 40
2020-07-05 11:00:00 30.1 22 Este 42 Este 0 1013.9 -- 45
2020-07-05 10:00:00 28.7 18 Este 34 Este 0 1013.8 -- 47
2020-07-05 09:00:00 26.1 13 Este 24 Este 0 1013.5 -- 55
2020-07-05 08:00:00 24 11 Este 19 Este 0 1013.2 -- 60
2020-07-05 07:00:00 23.9 11 Este 32 Este 0 1013 -- 60
2020-07-05 06:00:00 24.3 19 Este 32 Este 0 1012.9 -- 59
2020-07-05 05:00:00 24.4 13 Este 24 Sudeste 0 1013 -- 60
2020-07-05 04:00:00 24.2 12 Este 24 Sudeste 0 1013.5 -- 65
2020-07-05 03:00:00 24.3 13 Este 35 Este 0 1013.9 -- 65
2020-07-05 02:00:00 25.1 16 Este 33 Este 0 1014 -- 62
2020-07-05 01:00:00 25 12 Este 27 Este 0 1014.2 -- 63
2020-07-05 00:00:00 25.4 8 Este 27 Sudeste 0 1014.4 -- 64
2020-07-04 23:00:00 25.9 12 Sudeste 30 Sudeste 0 1013.8 -- 64
2020-07-04 22:00:00 24.7 4 Sudoeste 13 Noroeste 0 1013.6 -- 77
2020-07-04 21:00:00 26 6 Oeste 19 Oeste 0 1013.4 -- 74
2020-07-04 20:00:00 26.1 13 Noroeste 23 Noroeste 0 1013.2 -- 70
2020-07-04 19:00:00 26.2 14 Oeste 24 Oeste 0 1013.4 -- 68
2020-07-04 18:00:00 26.5 15 Oeste 23 Oeste 0 1013.7 -- 69
2020-07-04 17:00:00 26.6 13 Oeste 23 Oeste 0 1014.2 -- 70
2020-07-04 16:00:00 28.2 13 Oeste 24 Oeste 0 1014.7 -- 60
2020-07-04 15:00:00 30.2 12 Sudoeste 33 Sudeste 0 1015.1 -- 49
2020-07-04 14:00:00 32.8 13 Sudeste 32 Sudeste 0 1015.7 -- 42
2020-07-04 13:00:00 31.5 16 Este 37 Sudeste 0 1015.9 -- 45
2020-07-04 12:00:00 30.4 15 Este 31 Sudeste 0 1016 -- 48
2020-07-04 11:00:00 29.2 12 Este 31 Sudeste 0 1015.9 -- 55
2020-07-04 10:00:00 26.3 9 Este 19 Este 0 1015.8 -- 68
2020-07-04 09:00:00 21.8 0 Calma 4 Sur 0 1015.2 -- 80
2020-07-04 08:00:00 19.9 0 Calma 9 Sudeste 0 1015 -- 80
2020-07-04 07:00:00 20.1 4 Sudeste 10 Sudeste 0 1014.7 -- 77
2020-07-04 06:00:00 20.8 4 Este 6 Este 0 1014.3 -- 73
2020-07-04 05:00:00 20.9 0 Calma 8 Sudeste 0 1014.4 -- 73
2020-07-04 04:00:00 21 4 Sudeste 13 Sudeste 0 1014.7 -- 75
2020-07-04 03:00:00 20.3 7 Este 12 Este 0 1015.3 -- 84
2020-07-04 02:00:00 20.5 4 Este 9 Este 0 1015.5 -- 83
2020-07-04 01:00:00 20.9 3 Sudeste 7 Sudoeste 0 1015.6 -- 77
2020-07-04 00:00:00 20.9 2 Sudoeste 8 Oeste 0 1015.2 -- 78
2020-07-03 23:00:00 21.5 6 Oeste 10 Oeste 0 1014.9 -- 75
2020-07-03 22:00:00 22 6 Oeste 17 Oeste 0 1014.1 -- 68
2020-07-03 21:00:00 23.2 8 Oeste 19 Sudoeste 0 1013.9 -- 64
2020-07-03 20:00:00 23.4 13 Oeste 23 Oeste 0 1013.8 -- 61
2020-07-03 19:00:00 23.8 14 Oeste 22 Oeste 0 1014 -- 57
2020-07-03 18:00:00 23.1 13 Oeste 26 Oeste 0 1014.2 -- 59
2020-07-03 17:00:00 23.3 17 Oeste 28 Oeste 0 1014.5 -- 60
2020-07-03 16:00:00 23 15 Oeste 25 Oeste 0 1014.8 -- 59
2020-07-03 15:00:00 22.7 15 Oeste 24 Noroeste 0 1015 -- 59
2020-07-03 14:00:00 22.7 15 Oeste 24 Oeste 0 1015.5 -- 58
2020-07-03 13:00:00 22.1 14 Oeste 22 Oeste 0 1015.6 -- 58
2020-07-03 12:00:00 22.7 11 Oeste 18 Oeste 0 1015.4 -- 58
2020-07-03 11:00:00 22.4 10 Noroeste 17 Noroeste 0 1015.3 -- 58
2020-07-03 10:00:00 21.9 8 Noroeste 18 Norte 0 1015 -- 57
2020-07-03 09:00:00 21.5 9 Norte 20 Noroeste 0 1014.6 -- 62
2020-07-03 08:00:00 21.2 7 Noroeste 13 Noroeste 0 1014.3 -- 62
2020-07-03 07:00:00 20.9 4 Norte 12 Norte 0 1014 -- 62
2020-07-03 06:00:00 20.2 2 Norte 6 Norte 0 1013.8 -- 89
2020-07-03 05:00:00 20.7 3 Sudeste 10 Sudeste 0 1013.8 -- 90
2020-07-03 04:00:00 21 3 Sudeste 16 Sudeste 0 1013.8 -- 89
2020-07-03 03:00:00 21.4 8 Sudeste 18 Sudeste 0 1014.3 -- 86
2020-07-03 02:00:00 22.2 7 Sudeste 15 Sudeste 0 1014.4 -- 81
2020-07-03 01:00:00 22.9 4 Sur 17 Oeste 0 1014.5 -- 77
2020-07-03 00:00:00 23.4 11 Oeste 22 Oeste 0 1013.9 -- 77
2020-07-02 23:00:00 23.3 12 Oeste 19 Oeste 0 1013.3 -- 74
2020-07-02 22:00:00 23.6 14 Oeste 31 Oeste 0 1012.9 -- 72
2020-07-02 21:00:00 24.5 16 Oeste 32 Oeste 0 1012.6 -- 68
2020-07-02 20:00:00 25 17 Oeste 34 Oeste 0 1012.6 -- 65
2020-07-02 19:00:00 24.9 20 Oeste 33 Oeste 0 1012.6 -- 63
2020-07-02 18:00:00 25.9 19 Oeste 31 Oeste 0 1013.1 -- 60
2020-07-02 17:00:00 26.1 18 Oeste 31 Oeste 0 1013.1 -- 60
2020-07-02 16:00:00 25.6 17 Oeste 28 Oeste 0 1013.6 -- 63
2020-07-02 15:00:00 25.3 15 Oeste 23 Oeste 0 1013.9 -- 64
2020-07-02 14:00:00 24.5 14 Oeste 23 Oeste 0 1014 -- 68
2020-07-02 13:00:00 24.5 14 Oeste 22 Oeste 0 1014 -- 72
2020-07-02 12:00:00 24.9 10 Oeste 16 Oeste 0 1013.8 -- 74
2020-07-02 11:00:00 25.7 2 Norte 10 Sudeste 0 1013.5 -- 68
2020-07-02 10:00:00 23.9 4 Sudeste 13 Sudeste 0 1013.2 -- 81
2020-07-02 09:00:00 22 4 Sudeste 14 Sudeste 0 1012.8 -- 93
2020-07-02 08:00:00 21.4 8 Sur 17 Sur 0 1012.4 -- 94
2020-07-02 07:00:00 21.2 5 Sur 16 Sur 0 1012.1 -- 94
2020-07-02 06:00:00 21 6 Sur 19 Sur 0 1011.6 -- 94
2020-07-02 05:00:00 21 7 Sur 14 Sur 0 1011.7 -- 94
2020-07-02 04:00:00 20.8 6 Sur 19 Sudeste 0 1011.9 -- 93
2020-07-02 03:00:00 21.2 6 Sudeste 19 Sur 0 1011.8 -- 92
2020-07-02 02:00:00 21.4 6 Sur 15 Sur 0 1012.1 -- 90
2020-07-02 01:00:00 21.4 4 Sudoeste 9 Sudoeste 0 1011.9 -- 89
2020-07-02 00:00:00 21.9 6 Oeste 14 Oeste 0 1011.7 -- 86
2020-07-01 23:00:00 21.9 7 Oeste 15 Oeste 0 1011.2 -- 87
2020-07-01 22:00:00 22.1 9 Oeste 16 Oeste 0 1010.7 -- 87
2020-07-01 21:00:00 22.7 10 Oeste 19 Oeste 0 1010.6 -- 82
2020-07-01 20:00:00 23.4 12 Oeste 19 Oeste 0 1010.6 -- 76
2020-07-01 19:00:00 24.2 10 Oeste 19 Oeste 0 1010.7 -- 71
2020-07-01 18:00:00 24.2 14 Oeste 21 Oeste 0 1011.1 -- 67
2020-07-01 17:00:00 24 14 Oeste 23 Oeste 0 1011.5 -- 68
2020-07-01 16:00:00 24.3 12 Oeste 23 Oeste 0 1011.8 -- 65
2020-07-01 15:00:00 23.9 11 Oeste 22 Oeste 0 1011.9 -- 65
2020-07-01 14:00:00 23.9 13 Oeste 22 Sudoeste 0 1012.1 -- 65
2020-07-01 13:00:00 23 9 Sudoeste 19 Oeste 0 1012.5 -- 67
2020-07-01 12:00:00 23.2 10 Sudoeste 24 Oeste 0 1012.6 -- 67
2020-07-01 11:00:00 22.3 8 Sur 26 Sudoeste 0 1012.5 -- 73
2020-07-01 10:00:00 21.8 7 Sur 21 Sur 0 1012 -- 78
2020-07-01 09:00:00 20.8 7 Sudoeste 19 Sur 0 1011.8 -- 83
2020-07-01 08:00:00 20.3 9 Sur 19 Sur 0 1011.2 -- 86
2020-07-01 07:00:00 20.6 8 Sur 18 Sudoeste 0 1010.9 -- 88
2020-07-01 06:00:00 20.8 6 Sudoeste 19 Sur 0 1010.5 -- 90
2020-07-01 05:00:00 21 10 Sur 22 Sur 0 1010.3 -- 91
2020-07-01 04:00:00 21 8 Sur 19 Sur 0 1010.4 -- 91
2020-07-01 03:00:00 21.4 9 Sur 17 Sur 0 1010.9 -- 92
2020-07-01 02:00:00 22 9 Sur 17 Sur 0 1011 -- 92
2020-07-01 01:00:00 21.9 8 Sur 20 Sur 0 1011 -- 92
2020-07-01 00:00:00 22.3 8 Sudoeste 21 Sur 0 1010.7 -- 91
2020-06-30 23:00:00 22.4 7 Sur 16 Sur 0 1010.1 -- 89
2020-06-30 22:00:00 22.9 5 Sudoeste 18 Sudoeste 0 1009.2 -- 86
2020-06-30 21:00:00 24.7 9 Sudoeste 18 Sudoeste 0 1008.7 -- 76
2020-06-30 20:00:00 26.4 10 Sudoeste 21 Sudoeste 0 1008.4 -- 64
2020-06-30 19:00:00 27 13 Sudoeste 26 Sudoeste 0 1008.5 -- 58
2020-06-30 18:00:00 27.2 14 Sudoeste 32 Sur 0 1009 -- 63
2020-06-30 17:00:00 25.9 17 Sudoeste 37 Sur 0 1008.9 -- 69
2020-06-30 16:00:00 27.7 14 Sur 34 Sur 0 1009.2 -- 63
2020-06-30 15:00:00 27.4 16 Sur 39 Sur 0 1009.5 -- 64
2020-06-30 14:00:00 26.5 18 Sur 39 Sudoeste 0 1009.7 -- 67
2020-06-30 13:00:00 26.4 21 Sur 40 Sudoeste 0 1009.7 -- 66
2020-06-30 12:00:00 26.2 22 Sur 38 Sur 0 1009.7 -- 65
2020-06-30 11:00:00 26.4 17 Sur 33 Sur 0 1009.3 -- 64
2020-06-30 10:00:00 25.6 15 Sur 27 Sur 0 1009 -- 65
2020-06-30 09:00:00 23.4 6 Sur 17 Sur 0 1008.7 -- 68
2020-06-30 08:00:00 22.3 3 Sudeste 8 Sur 0 1008.3 -- 65
2020-06-30 07:00:00 22.1 6 Sudeste 12 Este 0 1008.1 -- 49
2020-06-30 06:00:00 22.9 9 Este 17 Este 0 1007.7 -- 47
2020-06-30 05:00:00 24.2 9 Este 19 Sudeste 0 1007.3 -- 43
2020-06-30 04:00:00 24 7 Sudeste 14 Sudeste 0 1007.8 -- 44
2020-06-30 03:00:00 24.2 5 Sudeste 18 Este 0 1008.4 -- 43
2020-06-30 02:00:00 24.8 9 Sudeste 22 Este 0 1008.9 -- 41
2020-06-30 01:00:00 25.4 12 Este 31 Sudeste 0 1009.2 -- 40
2020-06-30 00:00:00 25.7 12 Sudeste 27 Sudeste 0 1009 -- 41
2020-06-29 23:00:00 25 3 Norte 9 Noroeste 0 1009 -- 60
2020-06-29 22:00:00 25.6 5 Noroeste 14 Noroeste 0 1008.6 -- 55
2020-06-29 21:00:00 27 7 Oeste 15 Noroeste 0 1008.3 -- 54
2020-06-29 20:00:00 26.7 11 Oeste 19 Noroeste 0 1008.4 -- 55
2020-06-29 19:00:00 26.8 10 Oeste 19 Oeste 0 1008.5 -- 55
2020-06-29 18:00:00 26.7 13 Oeste 23 Oeste 0 1008.9 -- 58
2020-06-29 17:00:00 26.6 13 Oeste 26 Oeste 0 1009.5 -- 61
2020-06-29 16:00:00 28 13 Oeste 19 Oeste 0 1010.1 -- 52
2020-06-29 15:00:00 27.3 11 Sudoeste 19 Sudoeste 0 1010.7 -- 54
2020-06-29 14:00:00 26.8 10 Oeste 19 Oeste 0 1011.4 -- 55
2020-06-29 13:00:00 26.2 12 Oeste 20 Oeste 0 1011.8 -- 59
2020-06-29 12:00:00 25.9 7 Sudoeste 18 Oeste 0 1012 -- 61
2020-06-29 11:00:00 25.1 7 Noroeste 13 Oeste 0 1011.8 -- 63
2020-06-29 10:00:00 26.7 3 Sur 14 Sudeste 0 1012 -- 49
2020-06-29 09:00:00 24.1 6 Sudeste 12 Sudeste 0 1011.5 -- 61
2020-06-29 08:00:00 22.6 6 Sudeste 16 Sudeste 0 1011.1 -- 61
2020-06-29 07:00:00 22.8 8 Sudeste 17 Sudeste 0 1011.1 -- 62
2020-06-29 06:00:00 23.2 5 Sudeste 9 Sur 0 1010.6 -- 59
2020-06-29 05:00:00 22.9 3 Sudoeste 6 Sur 0 1011.1 -- 65
2020-06-29 04:00:00 22.7 3 Sur 10 Sur 0 1011.7 -- 70
2020-06-29 03:00:00 23.5 5 Sudeste 9 Sudeste 0 1012 -- 71
2020-06-29 02:00:00 24.4 4 Sudeste 8 Sudeste 0 1012.2 -- 65
2020-06-29 01:00:00 23.3 4 Sudeste 10 Sudeste 0 1012.4 -- 74
2020-06-29 00:00:00 23.7 4 Sudeste 8 Sudeste 0 1012.2 -- 73
2020-06-28 23:00:00 23.6 0 Calma 13 Oeste 0 1011.8 -- 73
2020-06-28 22:00:00 23.7 7 Oeste 19 Oeste 0 1011.5 -- 74
2020-06-28 21:00:00 24.9 12 Oeste 19 Oeste 0 1011.4 -- 70
2020-06-28 20:00:00 25.8 13 Oeste 18 Oeste 0 1011.2 -- 66
2020-06-28 19:00:00 25.8 13 Oeste 22 Noroeste 0 1011.3 -- 68
2020-06-28 18:00:00 25.5 13 Oeste 23 Oeste 0 1011.8 -- 67
2020-06-28 17:00:00 25 13 Oeste 24 Oeste 0 1012.1 -- 73
2020-06-28 16:00:00 26.7 15 Oeste 24 Oeste 0 1012.5 -1.4 64
2020-06-28 15:00:00 28.1 10 Oeste 21 Oeste 0 1013 -- 59
2020-06-28 14:00:00 26.4 6 Sudoeste 16 Sudoeste 0 1013.5 -- 66
2020-06-28 13:00:00 25.3 10 Sudoeste 19 Sudoeste 0 1013.9 -- 70
2020-06-28 12:00:00 24.7 8 Sudoeste 17 Sudoeste 0 1013.8 -- 74
2020-06-28 11:00:00 24.4 0 Calma 8 Sur 0 1013.6 -- 76
2020-06-28 10:00:00 21.5 4 Sudeste 12 Sur 0 1013.6 -- 93
2020-06-28 09:00:00 20.2 6 Sudeste 15 Sudeste 0 1013.3 -- 94
2020-06-28 08:00:00 19.5 7 Sudeste 14 Sudeste 0 1012.7 -- 93
2020-06-28 07:00:00 19.6 6 Sudeste 16 Sudeste 0 1012.4 -- 92
2020-06-28 06:00:00 19.9 8 Sudeste 14 Sudeste 0 1012.2 -- 92
2020-06-28 05:00:00 20.1 4 Sudeste 12 Sudeste 0 1012.3 -- 89
2020-06-28 04:00:00 20.6 5 Sudeste 15 Sur 0 1012.5 -- 88
2020-06-28 03:00:00 21.2 4 Sur 12 Sudeste 0 1012.8 -- 81
2020-06-28 02:00:00 22.2 3 Sudeste 7 Sudeste 0 1013.1 -- 79
2020-06-28 01:00:00 22.8 0 Calma 8 Noroeste 0 1013.3 -- 76
2020-06-28 00:00:00 22.8 5 Noroeste 12 Noroeste 0 1013.3 -- 76
2020-06-27 23:00:00 22.4 10 Noroeste 21 Noroeste 0 1013 -- 75
2020-06-27 22:00:00 21.8 12 Oeste 26 Noroeste 0 1012.5 -- 80
2020-06-27 21:00:00 22.9 17 Noroeste 29 Oeste 0 1012.3 -- 77
2020-06-27 20:00:00 23.5 15 Oeste 25 Oeste 0 1012.5 -- 72
2020-06-27 19:00:00 23.9 17 Oeste 28 Oeste 0 1012.7 -- 73
2020-06-27 18:00:00 23.6 18 Oeste 29 Noroeste 0 1013.3 -- 73
2020-06-27 17:00:00 23.8 20 Oeste 28 Oeste 0 1013.6 -- 64
2020-06-27 16:00:00 24.7 18 Oeste 28 Oeste 0 1014 -- 58
2020-06-27 15:00:00 24.1 17 Oeste 27 Oeste 0 1014.4 -- 63
2020-06-27 14:00:00 23.1 15 Oeste 24 Oeste 0 1014.7 -- 67
2020-06-27 13:00:00 24.2 13 Oeste 20 Oeste 0 1014.7 -- 57
2020-06-27 12:00:00 23.3 11 Oeste 18 Noroeste 0 1014.7 -- 66
2020-06-27 11:00:00 23.1 3 Noroeste 10 Oeste 0 1014.5 -- 67
2020-06-27 10:00:00 21.6 6 Noroeste 10 Noroeste 0 1014.5 -- 72
2020-06-27 09:00:00 20.1 2 Sudeste 14 Sudeste 0 1014.2 -- 91
2020-06-27 08:00:00 18.2 7 Sudeste 14 Sudeste 0 1013.8 -- 93
2020-06-27 07:00:00 17.8 6 Sudeste 13 Sudeste 0 1013.5 -- 92
2020-06-27 06:00:00 18.3 6 Sudeste 13 Sudeste 0 1013.2 -- 92
2020-06-27 05:00:00 18.5 6 Sudeste 14 Sudeste 0 1013.1 -- 92
2020-06-27 04:00:00 18.8 6 Sudeste 14 Sudeste 0 1013.4 -- 91
2020-06-27 03:00:00 19.5 4 Sudeste 14 Sur 0 1013.7 -- 88
2020-06-27 02:00:00 20 5 Sudoeste 12 Sudoeste 0 1013.8 -- 86
2020-06-27 01:00:00 20.3 5 Sudoeste 13 Sudoeste 0 1014.1 -- 84
2020-06-27 00:00:00 20.4 9 Sudoeste 14 Sudoeste 0 1013.7 -- 83
2020-06-26 23:00:00 20.5 9 Oeste 21 Oeste 0 1013.4 -- 80
2020-06-26 22:00:00 20.7 13 Oeste 27 Oeste 0 1012.9 -- 78
2020-06-26 21:00:00 21.8 18 Oeste 27 Oeste 0 1012.6 -- 74
2020-06-26 20:00:00 22.7 17 Oeste 27 Oeste 0 1012.6 -- 72
2020-06-26 19:00:00 22.8 15 Oeste 28 Oeste 0 1012.8 -- 67
2020-06-26 18:00:00 22.7 19 Oeste 31 Oeste 0 1013.1 -- 65
2020-06-26 17:00:00 23.6 16 Oeste 27 Oeste 0 1013.5 -- 63
2020-06-26 16:00:00 23.5 13 Sudoeste 23 Oeste 0 1013.7 -- 65
2020-06-26 15:00:00 23.1 13 Oeste 23 Oeste 0 1013.8 -- 69
2020-06-26 14:00:00 23 14 Oeste 24 Oeste 0 1014 -- 70
2020-06-26 13:00:00 23.5 9 Sudoeste 21 Oeste 0 1013.9 -- 67
2020-06-26 12:00:00 22.7 9 Sudoeste 22 Sudoeste 0 1013.7 -- 71
2020-06-26 11:00:00 22 9 Sudoeste 19 Sudoeste 0 1013.7 -- 72
2020-06-26 10:00:00 21.9 9 Sur 20 Sudoeste 0 1013.2 -- 74
2020-06-26 09:00:00 21.3 9 Sur 25 Sur 0 1012.9 -- 78
2020-06-26 08:00:00 20.5 12 Sur 21 Sur 0 1012.5 -- 84
2020-06-26 07:00:00 20.8 8 Sudoeste 17 Sudoeste 0 1012.6 -- 86
2020-06-26 06:00:00 20.8 8 Sudoeste 13 Sudoeste 0 1012.2 -- 89
2020-06-26 05:00:00 20.6 3 Sur 11 Sur 0 1012.3 -- 90
2020-06-26 04:00:00 20.2 4 Sudeste 13 Sur 0 1012.1 -- 90
2020-06-26 03:00:00 20.3 5 Sur 13 Sur 0 1012.3 -- 89
2020-06-26 02:00:00 20.7 6 Sur 14 Sudoeste 0 1012.5 -- 87
2020-06-26 01:00:00 21.3 6 Sur 16 Sur 0 1013.1 -- 86
2020-06-26 00:00:00 21.1 5 Sudoeste 12 Sudoeste 0 1013 -- 85
2020-06-25 23:00:00 21.3 6 Sudoeste 14 Sudoeste 0 1012.4 -- 84
2020-06-25 22:00:00 21.7 8 Sudoeste 18 Sudoeste 0 1012 -- 81
2020-06-25 21:00:00 22.9 11 Sudoeste 21 Sudoeste 0 1011.5 -- 74
2020-06-25 20:00:00 23.8 12 Oeste 22 Oeste 0 1011.2 -- 67
2020-06-25 19:00:00 24.5 12 Sudoeste 25 Oeste 0 1011.2 -- 62
2020-06-25 18:00:00 24.6 15 Oeste 25 Sudoeste 0 1011.5 -- 61
2020-06-25 17:00:00 25.1 13 Sudoeste 30 Sudoeste 0 1012 -- 64
2020-06-25 16:00:00 25.3 13 Sudoeste 27 Sur 0 1012.1 -- 63
2020-06-25 15:00:00 25.8 15 Sudoeste 29 Sur 0 1012.4 -- 59
2020-06-25 14:00:00 26.4 11 Sur 29 Sur 0 1012.9 -- 56
2020-06-25 13:00:00 26.2 10 Sur 25 Sur 0 1013 -- 57
2020-06-25 12:00:00 24.2 13 Sur 32 Sudoeste 0 1013 -- 66
2020-06-25 11:00:00 23.6 17 Sur 34 Sur 0 1012.4 -- 69
2020-06-25 10:00:00 22.6 13 Sur 23 Sur 0 1012.1 -- 76
2020-06-25 09:00:00 21.4 7 Sur 19 Sur 0 1011.6 -- 86
2020-06-25 08:00:00 20.8 5 Sur 15 Sur 0 1011.3 -- 92
2020-06-25 07:00:00 20.9 3 Sur 14 Sur 0 1011.3 -- 92
2020-06-25 06:00:00 21 4 Sudeste 17 Sur 0 1010.9 -- 92
2020-06-25 05:00:00 21.3 8 Sur 22 Sur 0 1010.9 -- 92
2020-06-25 04:00:00 21.4 7 Sur 21 Sur 0 1011.2 -- 86
2020-06-25 03:00:00 21.2 8 Sudeste 23 Sudeste 0 1011.4 -- 83
2020-06-25 02:00:00 21.2 6 Sur 17 Sudoeste 0 1011.9 -- 88
2020-06-25 01:00:00 22.4 2 Sudoeste 6 Oeste 0 1011.6 -- 85
2020-06-25 00:00:00 22.5 3 Oeste 8 Noroeste 0 1011.3 -- 85
2020-06-24 23:00:00 22.6 4 Noroeste 12 Noroeste 0 1011 -- 84
2020-06-24 22:00:00 22.9 5 Noroeste 15 Noroeste 0 1010.4 -- 82
2020-06-24 21:00:00 23.1 10 Oeste 18 Oeste 0 1009.9 -- 81
2020-06-24 20:00:00 24.3 13 Oeste 20 Oeste 0 1009.6 -- 74
2020-06-24 19:00:00 25.1 14 Oeste 29 Oeste 0 1009.9 -- 71
2020-06-24 18:00:00 26.2 13 Sudoeste 34 Sudoeste 0 1010.1 -- 64
2020-06-24 17:00:00 26.9 13 Sudoeste 35 Sudoeste 0 1010.6 -- 60
2020-06-24 16:00:00 26.3 15 Sudoeste 34 Sudoeste 0 1010.7 -- 64
2020-06-24 15:00:00 25.8 13 Sudoeste 31 Sur 0 1011.1 -- 65
2020-06-24 14:00:00 25.5 13 Sudoeste 30 Sudoeste 0 1011.4 -- 66
2020-06-24 13:00:00 24.8 19 Sudoeste 35 Sudoeste 0 1011.4 -- 67
2020-06-24 12:00:00 25.7 17 Sur 39 Sur 0 1011.1 -- 65
2020-06-24 11:00:00 25 10 Sudoeste 26 Sur 0 1011.1 -- 67
2020-06-24 10:00:00 24.6 7 Sur 14 Sur 0 1011.2 -- 66
2020-06-24 09:00:00 23.3 6 Sudeste 18 Sudoeste 0 1010.8 -- 78
2020-06-24 08:00:00 21.8 5 Sur 13 Sur 0 1010.6 -- 83
2020-06-24 07:00:00 22.1 5 Sur 10 Sur 0 1010.6 -- 68
2020-06-24 06:00:00 22.6 4 Este 10 Este 0 1010.1 -- 61
2020-06-24 05:00:00 22.7 4 Este 20 Sudeste 0 1010.2 -- 59
2020-06-24 04:00:00 23.3 8 Este 17 Este 0 1010.2 -- 56
2020-06-24 03:00:00 23.8 9 Este 17 Sudeste 0 1010.6 -- 55
2020-06-24 02:00:00 24.3 4 Sudeste 22 Sudeste 0 1010.8 -- 52
2020-06-24 01:00:00 25 11 Este 23 Sudeste 0 1010.4 -- 50
2020-06-24 00:00:00 25.1 8 Sudeste 28 Sudeste 0 1010.5 -- 50
2020-06-23 23:00:00 25.9 12 Sudeste 38 Sudeste 0 1009.7 -- 47
2020-06-23 22:00:00 26.8 16 Este 36 Sudeste 0 1008.8 -- 44
2020-06-23 21:00:00 28.9 20 Este 53 Sudeste 0 1008.3 -- 39
2020-06-23 20:00:00 30.6 27 Este 61 Sudeste 0 1007.8 -- 36
2020-06-23 19:00:00 31.2 25 Sudeste 55 Sudeste 0 1007.9 -- 36
2020-06-23 18:00:00 32.9 25 Este 58 Este 0 1007.9 -- 34
2020-06-23 17:00:00 33.1 28 Este 52 Este 0 1008.4 -- 33
2020-06-23 16:00:00 34 22 Este 54 Este 0 1008.9 -- 34
2020-06-23 15:00:00 33.4 24 Este 49 Este 0 1009 -- 33
2020-06-23 14:00:00 33.6 28 Este 58 Este 0 1009.6 -- 34
2020-06-23 13:00:00 33.1 26 Este 53 Sudeste 0 1009.5 -- 34
2020-06-23 12:00:00 32.3 22 Este 48 Este 0 1009.5 -- 36
2020-06-23 11:00:00 31 22 Este 49 Este 0 1009.6 -- 39
2020-06-23 10:00:00 29.6 17 Este 29 Este 0 1009.7 -- 40
2020-06-23 09:00:00 27.6 14 Este 33 Nordeste 0 1009.7 -- 42
2020-06-23 08:00:00 26.2 16 Este 36 Este 0 1009 -- 42
2020-06-23 07:00:00 25.6 21 Este 38 Este 0 1008.4 -- 43
2020-06-23 06:00:00 25.3 18 Este 39 Este 0 1008.4 -- 44
2020-06-23 05:00:00 25 22 Este 44 Este 0 1008.8 -- 46
2020-06-23 04:00:00 25.1 22 Este 43 Este 0 1009.5 -- 46
2020-06-23 03:00:00 25 18 Este 43 Este 0 1010.1 -- 47
2020-06-23 02:00:00 25.1 22 Este 41 Este 0 1010.3 -- 47
2020-06-23 01:00:00 25.4 19 Este 51 Este 0 1010.2 -- 46
2020-06-23 00:00:00 25.7 21 Este 50 Este 0 1009.8 -- 44
2020-06-22 23:00:00 26 24 Este 51 Sudeste 0 1009.5 -- 41
2020-06-22 22:00:00 27.2 23 Este 50 Este 0 1009.1 -- 37
2020-06-22 21:00:00 29.5 23 Este 52 Sudeste 0 1008.9 -- 33
2020-06-22 20:00:00 31.7 26 Este 49 Este 0 1008.7 -- 28
2020-06-22 19:00:00 33.6 25 Este 53 Este 0 1008.8 -- 26
2020-06-22 18:00:00 34.8 27 Este 56 Este 0 1009 -- 24
2020-06-22 17:00:00 35.7 24 Este 60 Este 0 1009.7 -- 24
2020-06-22 16:00:00 35.4 29 Este 51 Sudeste 0 1010.6 -- 24
2020-06-22 15:00:00 35.4 25 Este 53 Sudeste 0 1012 -- 25
2020-06-22 14:00:00 34.9 24 Este 54 Este 0 1012.5 -- 26
2020-06-22 13:00:00 34.3 27 Este 52 Este 0 1012.9 -- 27
2020-06-22 12:00:00 33.5 22 Este 44 Este 0 1012.9 -- 29
2020-06-22 11:00:00 32.3 18 Este 37 Este 0 1012.8 -- 32
2020-06-22 10:00:00 29.8 17 Este 31 Este 0 1013.2 -- 38
2020-06-22 09:00:00 25.8 5 Este 15 Este 0 1013.2 -- 46
2020-06-22 08:00:00 22.9 12 Este 17 Nordeste 0 1013.2 -- 50
2020-06-22 07:00:00 22.2 4 Nordeste 13 Este 0 1013.2 -- 55
2020-06-22 06:00:00 24 10 Este 21 Sudeste 0 1013 -- 46
2020-06-22 05:00:00 24.2 10 Este 17 Este 0 1013.4 -- 46
2020-06-22 04:00:00 23.1 9 Este 15 Este 0 1013.9 -- 52
2020-06-22 03:00:00 23.3 6 Este 14 Sudeste 0 1014.4 -- 55
2020-06-22 02:00:00 22.9 8 Sudeste 17 Sudeste 0 1014.9 -- 61
2020-06-22 01:00:00 24.9 3 Noroeste 5 Norte 0 1015.4 -- 55
2020-06-22 00:00:00 25.3 3 Noroeste 9 Norte 0 1015.4 -- 50
2020-06-21 23:00:00 25 5 Noroeste 14 Noroeste 0 1015.5 -- 54
2020-06-21 22:00:00 24.8 5 Noroeste 16 Norte 0 1014.9 -- 61
2020-06-21 21:00:00 27.3 10 Noroeste 19 Noroeste 0 1014.6 -- 52
2020-06-21 20:00:00 28.7 8 Noroeste 25 Noroeste 0 1014.5 -- 45
2020-06-21 19:00:00 29 14 Noroeste 28 Noroeste 0 1014.9 -- 46
2020-06-21 18:00:00 29 18 Noroeste 32 Noroeste 0 1015.6 -- 42
2020-06-21 17:00:00 27.9 17 Noroeste 30 Noroeste 0 1016 -- 48
2020-06-21 16:00:00 26.1 15 Oeste 24 Oeste 0 1016.6 -- 58
2020-06-21 15:00:00 26 15 Oeste 22 Noroeste 0 1017.2 -- 58
2020-06-21 14:00:00 26.3 12 Oeste 22 Oeste 0 1017.9 -- 61
2020-06-21 13:00:00 26 11 Oeste 17 Oeste 0 1018.2 -- 63
2020-06-21 12:00:00 28.6 8 Norte 15 Norte 0 1018.3 -- 40
2020-06-21 11:00:00 26.7 4 Norte 15 Norte 0 1018.4 -- 48
2020-06-21 10:00:00 23.6 5 Nordeste 13 Nordeste 0 1018.4 -- 58
2020-06-21 09:00:00 21.7 3 Nordeste 13 Norte 0 1018.1 -- 64
2020-06-21 08:00:00 20.2 5 Norte 10 Norte 0 1017.6 -- 73
2020-06-21 07:00:00 20.6 2 Norte 8 Nordeste 0 1017.3 -- 70
2020-06-21 06:00:00 20.6 0 Calma 4 Nordeste 0 1017.2 -- 74
2020-06-21 05:00:00 21 0 Calma 3 Noroeste 0 1017.1 -- 73
2020-06-21 04:00:00 21.5 0 Calma 3 Oeste 0 1017.2 -- 68
2020-06-21 03:00:00 22 2 Este 6 Sudeste 0 1017.6 -- 65
2020-06-21 02:00:00 20.9 4 Este 8 Sudeste 0 1017.9 -- 75
2020-06-21 01:00:00 21.7 3 Este 5 Sudeste 0 1018.3 -- 73
2020-06-21 00:00:00 22.3 3 Sudeste 5 Sudeste 0 1018.1 -- 68
2020-06-20 23:00:00 21.5 0 Calma 9 Oeste 0 1017.8 -- 66
2020-06-20 22:00:00 22 6 Oeste 16 Oeste 0 1017.1 -- 73
2020-06-20 21:00:00 23.3 10 Oeste 18 Oeste 0 1016.8 -- 68
2020-06-20 20:00:00 25.5 11 Oeste 22 Oeste 0 1016.7 -- 55
2020-06-20 19:00:00 25.7 12 Oeste 24 Oeste 0 1016.5 -- 50
2020-06-20 18:00:00 25 14 Oeste 26 Oeste 0 1016.8 -- 57
2020-06-20 17:00:00 24.5 15 Oeste 26 Oeste 0 1017.1 -- 63
2020-06-20 16:00:00 24.5 17 Oeste 24 Oeste 0 1017.2 -- 68
2020-06-20 15:00:00 25.7 15 Oeste 25 Noroeste 0 1017.2 -- 61
2020-06-20 14:00:00 25.2 15 Oeste 25 Oeste 0 1017.2 -- 59
2020-06-20 13:00:00 25.9 12 Oeste 18 Oeste 0 1017.5 -- 52
2020-06-20 12:00:00 28.6 4 Nordeste 16 Este 0 1017.4 -- 45
2020-06-20 11:00:00 27.3 4 Este 14 Este 0 1017.4 -- 47
2020-06-20 10:00:00 24.3 5 Este 9 Este 0 1017.3 -- 53
2020-06-20 09:00:00 20.9 3 Este 4 Este 0 1016.9 -- 65
2020-06-20 08:00:00 18.6 4 Este 5 Este 0 1016.4 -- 70
2020-06-20 07:00:00 18.3 3 Nordeste 6 Este 0 1016 -- 74
2020-06-20 06:00:00 18.6 2 Este 5 Este 0 1016 -- 70
2020-06-20 05:00:00 18.1 3 Este 8 Sudeste 0 1015.9 -- 76
2020-06-20 04:00:00 18.3 3 Este 6 Este 0 1016 -- 77
2020-06-20 03:00:00 18.7 3 Este 5 Este 0 1016.4 -- 79
2020-06-20 02:00:00 19.9 0 Calma 9 Noroeste 0 1016.8 -- 74
2020-06-20 01:00:00 20.1 4 Norte 10 Noroeste 0 1017.1 -- 72
2020-06-20 00:00:00 20.1 4 Noroeste 10 Noroeste 0 1017.1 -- 74
2020-06-19 23:00:00 19.6 6 Oeste 12 Oeste 0 1016.6 -- 78
2020-06-19 22:00:00 20.3 8 Oeste 16 Oeste 0 1016.2 -- 68
2020-06-19 21:00:00 21.3 10 Oeste 21 Oeste 0 1015.9 -- 65
2020-06-19 20:00:00 21.5 14 Oeste 22 Oeste 0 1015.8 -- 67
2020-06-19 19:00:00 21.4 13 Oeste 25 Oeste 0 1015.8 -- 65
2020-06-19 18:00:00 21.7 14 Oeste 23 Sudoeste 0 1016.2 -- 63
2020-06-19 17:00:00 22.3 11 Oeste 25 Sudoeste 0 1016.3 -- 55
2020-06-19 16:00:00 22.2 15 Oeste 24 Oeste 0 1016.5 -- 62
2020-06-19 15:00:00 22 12 Oeste 25 Sudoeste 0 1016.7 -- 62
2020-06-19 14:00:00 21.8 13 Sudoeste 24 Oeste 0 1017 -- 62
2020-06-19 13:00:00 21.5 12 Oeste 22 Sudoeste 0 1016.9 -- 62
2020-06-19 12:00:00 21.3 10 Oeste 18 Oeste 0 1016.6 -- 63
2020-06-19 11:00:00 20.8 10 Oeste 18 Oeste 0 1016 -- 66
2020-06-19 10:00:00 20.2 8 Sudoeste 15 Sudoeste 0 1015.7 -- 66
2020-06-19 09:00:00 19.8 7 Sudoeste 14 Oeste 0 1015.2 -- 71
2020-06-19 08:00:00 18.7 6 Oeste 12 Oeste 0 1014.9 -- 74
2020-06-19 07:00:00 18.8 6 Sudoeste 9 Sudoeste 0 1014.3 -- 79
2020-06-19 06:00:00 18.7 5 Oeste 12 Sudoeste 0 1013.8 -- 77
2020-06-19 05:00:00 18.9 5 Oeste 15 Oeste 0 1013.4 -- 78
2020-06-19 04:00:00 19.3 6 Oeste 18 Sudoeste 0 1013.2 -- 85
2020-06-19 03:00:00 19.6 9 Sudoeste 20 Sur 0 1013.4 -- 85
2020-06-19 02:00:00 19.6 12 Sur 26 Sur 0 1013.4 -- 85
2020-06-19 01:00:00 19.6 9 Sur 20 Sur 0 1013.5 -- 84
2020-06-19 00:00:00 19.8 6 Sudoeste 14 Sur 0 1013.5 -- 81
2020-06-18 23:00:00 20 6 Sudoeste 14 Sudoeste 0 1012.9 -- 78
2020-06-18 22:00:00 20.5 9 Oeste 22 Oeste 0 1012.2 -- 71
2020-06-18 21:00:00 21.4 16 Oeste 29 Sudoeste 0 1011.8 -- 66
2020-06-18 20:00:00 21.6 20 Oeste 31 Oeste 0 1011.6 -- 64
2020-06-18 19:00:00 21.5 21 Oeste 33 Oeste 0 1011.4 -- 65
2020-06-18 18:00:00 21.6 20 Oeste 32 Oeste 0 1011.5 -- 63
2020-06-18 17:00:00 22.3 18 Oeste 31 Oeste 0 1011.7 -- 61
2020-06-18 16:00:00 21.2 19 Oeste 31 Oeste 0 1011.8 -- 63
2020-06-18 15:00:00 21.1 17 Oeste 30 Oeste 0 1011.5 -- 64
2020-06-18 14:00:00 21.8 17 Oeste 28 Noroeste 0 1011.5 -- 64
2020-06-18 13:00:00 21.2 16 Oeste 26 Oeste 0 1011.6 -- 66
2020-06-18 12:00:00 21.4 13 Oeste 22 Noroeste 0 1011.4 -- 66
2020-06-18 11:00:00 21.9 10 Noroeste 20 Oeste 0 1010.7 -- 64
2020-06-18 10:00:00 20 8 Noroeste 16 Noroeste 0 1010.8 -- 65
2020-06-18 09:00:00 19.5 6 Norte 15 Norte 0 1010.4 -- 65
2020-06-18 08:00:00 18.5 4 Norte 16 Noroeste 0 1010 -- 68
2020-06-18 07:00:00 19.1 7 Noroeste 14 Norte 0 1009.6 -- 66
2020-06-18 06:00:00 19.1 5 Norte 12 Norte 0 1009.3 -- 67
2020-06-18 05:00:00 18.6 3 Norte 9 Norte 0 1009.6 -- 85
2020-06-18 04:00:00 18.9 0 Calma 6 Este 0 1009.9 -- 88
2020-06-18 03:00:00 18.8 3 Sudeste 12 Este 0 1010.4 -- 88
2020-06-18 02:00:00 19.6 5 Sudeste 13 Sudeste 0 1010.9 -- 83
2020-06-18 01:00:00 20.6 5 Noroeste 12 Oeste 0 1011.3 -- 83
2020-06-18 00:00:00 20.3 7 Oeste 16 Oeste 0 1012 -- 85
2020-06-17 23:00:00 20.3 10 Oeste 18 Oeste 0 1012 -- 81
2020-06-17 22:00:00 20.6 10 Oeste 23 Oeste 0 1011.5 -- 76
2020-06-17 21:00:00 21.6 17 Oeste 28 Noroeste 0 1011.5 -- 70
2020-06-17 20:00:00 21.4 18 Oeste 32 Oeste 0 1011.4 -- 68
2020-06-17 19:00:00 22.4 19 Oeste 32 Oeste 0 1011.7 -- 68
2020-06-17 18:00:00 22.4 17 Oeste 30 Oeste 0 1012.1 -- 64
2020-06-17 17:00:00 22.2 16 Oeste 29 Oeste 0 1012.7 -- 60
2020-06-17 16:00:00 22.4 17 Oeste 29 Oeste 0 1013.2 -- 59
2020-06-17 15:00:00 22.3 15 Oeste 30 Noroeste 0 1013.7 -- 60
2020-06-17 14:00:00 21.6 18 Oeste 27 Oeste 0 1014.3 -- 63
2020-06-17 13:00:00 22 16 Oeste 25 Oeste 0 1014.6 -- 61
2020-06-17 12:00:00 21.7 13 Oeste 21 Oeste 0 1014.6 -- 64
2020-06-17 11:00:00 21.5 11 Noroeste 17 Noroeste 0 1014.9 -- 64
2020-06-17 10:00:00 21.6 6 Noroeste 15 Noroeste 0 1015.1 -- 67
2020-06-17 09:00:00 20.4 6 Noroeste 12 Noroeste 0 1015.3 -- 73
2020-06-17 08:00:00 19.5 5 Noroeste 12 Noroeste 0 1014.8 -- 80
2020-06-17 07:00:00 19.5 5 Norte 12 Noroeste 0 1014.5 -- 78
2020-06-17 06:00:00 19.9 8 Noroeste 18 Noroeste 0 1014.5 -- 79
2020-06-17 05:00:00 20.2 10 Noroeste 22 Noroeste 0 1014.7 -- 76
2020-06-17 04:00:00 20.7 10 Noroeste 20 Noroeste 0 1015.1 -- 73
2020-06-17 03:00:00 20.8 13 Noroeste 24 Oeste 0 1015.5 -- 76
2020-06-17 02:00:00 20.9 16 Noroeste 30 Noroeste 0 1016.1 -- 79
2020-06-17 01:00:00 21 19 Noroeste 31 Noroeste 0 1016.5 -- 83
2020-06-17 00:00:00 20.8 19 Oeste 32 Oeste 0 1016.9 -- 87
2020-06-16 23:00:00 20.6 20 Oeste 35 Oeste 0 1016.7 -- 87
2020-06-16 22:00:00 20.7 21 Oeste 35 Oeste 0 1016.8 -- 86
2020-06-16 21:00:00 21.3 21 Oeste 37 Oeste 0 1016.7 -- 83
2020-06-16 20:00:00 22 24 Oeste 38 Oeste 0 1016.8 -- 80
2020-06-16 19:00:00 22.3 26 Oeste 43 Oeste 0 1017.4 -- 77
2020-06-16 18:00:00 22.7 29 Oeste 44 Oeste 0 1018.1 -- 75
2020-06-16 17:00:00 22.2 24 Oeste 42 Oeste 0 1018.1 -- 70
2020-06-16 16:00:00 23 30 Oeste 43 Oeste 0 1018.9 -- 59
2020-06-16 15:00:00 22.6 24 Oeste 46 Oeste 0 1019.1 -- 61
2020-06-16 14:00:00 21.6 27 Oeste 42 Oeste 0 1019.5 -- 65
2020-06-16 13:00:00 20.8 23 Oeste 39 Oeste 0 1019.7 -- 61
2020-06-16 12:00:00 20.2 19 Oeste 32 Oeste 0 1019 -- 68
2020-06-16 11:00:00 21.4 15 Oeste 24 Oeste 0 1019.2 -- 66
2020-06-16 10:00:00 20.8 13 Noroeste 23 Noroeste 0 1019.2 -- 66
2020-06-16 09:00:00 20.6 13 Noroeste 22 Noroeste 0 1018.7 -- 64
2020-06-16 08:00:00 19.7 8 Norte 19 Norte 0 1018.4 -- 65
2020-06-16 07:00:00 19.5 8 Norte 20 Norte 0 1018 -- 65
2020-06-16 06:00:00 19.7 7 Norte 21 Noroeste 0 1017.4 -- 65
2020-06-16 05:00:00 20.1 9 Noroeste 23 Noroeste 0 1017.1 -- 65
2020-06-16 04:00:00 20.8 12 Noroeste 24 Norte 0 1017.6 -- 62
2020-06-16 03:00:00 21.2 10 Noroeste 26 Noroeste 0 1017.9 -- 62
2020-06-16 02:00:00 21.3 11 Noroeste 20 Noroeste 0 1018.2 -- 71
2020-06-16 01:00:00 20 9 Oeste 13 Oeste 0 1018.1 -- 74
2020-06-16 00:00:00 20.2 6 Oeste 19 Oeste 0 1018.2 -- 71
2020-06-15 23:00:00 20.3 11 Oeste 29 Oeste 0 1018.6 -- 73
2020-06-15 22:00:00 20.5 18 Oeste 31 Oeste 0 1018.6 -- 69
2020-06-15 21:00:00 20.9 18 Oeste 32 Oeste 0 1018.9 -- 66
2020-06-15 20:00:00 21.3 19 Oeste 33 Oeste 0 1018.7 -- 60
2020-06-15 19:00:00 21.9 21 Oeste 32 Oeste 0 1018.5 -- 55
2020-06-15 18:00:00 22.3 17 Oeste 28 Oeste 0 1018.6 -- 49
2020-06-15 17:00:00 22.2 17 Oeste 28 Oeste 0 1019.2 -- 57
2020-06-15 16:00:00 21.7 18 Oeste 26 Oeste 0 1019.7 -- 62
2020-06-15 15:00:00 21.2 16 Oeste 24 Oeste 0 1020.4 -- 67
2020-06-15 14:00:00 20.9 13 Oeste 25 Oeste 0 1020.4 -- 69
2020-06-15 13:00:00 20.9 13 Oeste 25 Oeste 0 1020.7 -- 68
2020-06-15 12:00:00 21.4 14 Oeste 22 Oeste 0 1020.6 -- 65
2020-06-15 11:00:00 20.9 10 Oeste 18 Oeste 0 1020.4 -- 66
2020-06-15 10:00:00 20 5 Oeste 9 Oeste 0 1020.2 -- 65
2020-06-15 09:00:00 19.5 4 Noroeste 10 Noroeste 0 1019.7 -- 67
2020-06-15 08:00:00 18.2 3 Norte 9 Norte 0 1019.5 -- 71
2020-06-15 07:00:00 18.5 4 Norte 14 Noroeste 0 1019 -- 70
2020-06-15 06:00:00 19 6 Noroeste 22 Noroeste 0 1019 -- 66
2020-06-15 05:00:00 19.4 12 Noroeste 28 Noroeste 0 1018.9 -- 66
2020-06-15 04:00:00 19.9 17 Noroeste 30 Noroeste 0 1019.1 -- 65
2020-06-15 03:00:00 20.3 18 Noroeste 27 Noroeste 0 1019.5 -- 67
2020-06-15 02:00:00 19.7 13 Oeste 21 Oeste 0 1019.5 -- 74
2020-06-15 01:00:00 19.6 12 Oeste 21 Oeste 0 1019.8 -- 73
2020-06-15 00:00:00 19.9 11 Oeste 19 Oeste 0 1019.7 -- 69
2020-06-14 23:00:00 19.7 14 Oeste 21 Oeste 0 1019.4 -- 66
2020-06-14 22:00:00 20.2 13 Oeste 23 Oeste 0 1018.9 -- 65
2020-06-14 21:00:00 21 14 Oeste 30 Oeste 0 1018.8 -- 65
2020-06-14 20:00:00 21 19 Oeste 33 Oeste 0 1018.6 -- 59
2020-06-14 19:00:00 21.6 22 Oeste 38 Oeste 0 1018.5 -- 57
2020-06-14 18:00:00 21.7 21 Oeste 36 Oeste 0 1018.7 -- 54
2020-06-14 17:00:00 21.6 24 Oeste 41 Oeste 0 1018.8 -- 58
2020-06-14 16:00:00 21.3 25 Oeste 41 Oeste 0 1019.1 -- 62
2020-06-14 15:00:00 22.1 24 Oeste 36 Oeste 0 1019.3 -- 56
2020-06-14 14:00:00 22.4 21 Oeste 33 Oeste 0 1019.4 -- 55
2020-06-14 13:00:00 21 15 Oeste 28 Oeste 0 1019.3 -- 65
2020-06-14 12:00:00 20.3 15 Oeste 26 Oeste 0 1019.1 -- 70
2020-06-14 11:00:00 19.7 15 Oeste 27 Oeste 0 1018.8 -- 72
2020-06-14 10:00:00 20 13 Oeste 22 Oeste 0 1018.2 -- 72
2020-06-14 09:00:00 19.5 9 Noroeste 17 Noroeste 0 1017.5 -- 67
2020-06-14 08:00:00 18.8 8 Noroeste 17 Noroeste 0 1016.7 -- 68
2020-06-14 07:00:00 18.9 11 Noroeste 23 Noroeste 0 1016.2 -- 65
2020-06-14 06:00:00 19.1 10 Noroeste 24 Norte 0 1015.7 -- 62
2020-06-14 05:00:00 19.4 10 Noroeste 22 Oeste 0 1015.4 -- 62
2020-06-14 04:00:00 19.6 13 Noroeste 26 Noroeste 0 1015.4 -- 64
2020-06-14 03:00:00 19.6 13 Oeste 24 Oeste 0 1015.7 -- 68
2020-06-14 02:00:00 19.9 14 Oeste 23 Oeste 0 1016 -- 65
2020-06-14 01:00:00 19.7 11 Oeste 22 Oeste 0 1016.2 -- 64
2020-06-14 00:00:00 19.7 13 Oeste 22 Noroeste 0 1016.1 -- 66
2020-06-13 23:00:00 19.7 11 Noroeste 19 Noroeste 0 1015.3 -- 65
2020-06-13 22:00:00 19.7 10 Oeste 21 Oeste 0 1014.8 -- 62
2020-06-13 21:00:00 20.1 13 Oeste 24 Oeste 0 1014.7 -- 61
2020-06-13 20:00:00 20.6 16 Oeste 27 Oeste 0 1014.9 -- 60
2020-06-13 19:00:00 21.3 17 Oeste 28 Oeste 0 1014.7 -- 58
2020-06-13 18:00:00 21.1 18 Oeste 32 Oeste 0 1015.1 -- 56
2020-06-13 17:00:00 20.9 17 Oeste 31 Oeste 0 1015.3 -- 59
2020-06-13 16:00:00 21.8 19 Oeste 28 Oeste 0 1015.3 -- 58
2020-06-13 15:00:00 20.9 14 Oeste 25 Oeste 0 1015.4 -- 60
2020-06-13 14:00:00 20.5 13 Oeste 23 Oeste 0 1015.7 -- 59
2020-06-13 13:00:00 20.6 12 Oeste 21 Noroeste 0 1015.8 -- 60
2020-06-13 12:00:00 19.9 11 Noroeste 18 Oeste 0 1015.4 -- 63
2020-06-13 11:00:00 19.6 6 Oeste 14 Oeste 0 1014.8 -- 64
2020-06-13 10:00:00 19.4 4 Nordeste 12 Norte 0 1014.3 -- 64
2020-06-13 09:00:00 18.3 3 Norte 11 Este 0 1013.7 -- 67
2020-06-13 08:00:00 16.9 3 Nordeste 12 Nordeste 0 1013.1 -- 71
2020-06-13 07:00:00 17.1 5 Nordeste 15 Noroeste 0 1012.9 -- 70
2020-06-13 06:00:00 17.7 10 Noroeste 22 Noroeste 0 1012.5 -- 67
2020-06-13 05:00:00 18.3 14 Noroeste 25 Noroeste 0 1012.2 -- 67
2020-06-13 04:00:00 18.3 14 Oeste 25 Oeste 0 1012.3 -- 68
2020-06-13 03:00:00 18.7 15 Oeste 32 Oeste 0 1012.5 -- 68
2020-06-13 02:00:00 19 19 Oeste 34 Oeste 0 1012.5 -- 65
2020-06-13 01:00:00 18.8 20 Oeste 38 Oeste 0 1012.6 -- 66
2020-06-13 00:00:00 19.1 26 Oeste 44 Oeste 0 1012.4 -- 64
2020-06-12 23:00:00 19.3 21 Oeste 36 Oeste 0 1011.8 -- 62
2020-06-12 22:00:00 19.5 21 Oeste 37 Oeste 0 1010.8 -- 59
2020-06-12 21:00:00 19.9 24 Oeste 39 Oeste 0 1010.3 -- 57
2020-06-12 20:00:00 20 19 Oeste 36 Oeste 0 1009.5 -- 56
2020-06-12 19:00:00 20.9 18 Sudoeste 35 Oeste 0 1009.3 -- 52
2020-06-12 18:00:00 20.6 17 Oeste 35 Sudoeste 0 1009.2 -- 49
2020-06-12 17:00:00 20.7 19 Oeste 35 Oeste 0 1009.2 -- 45
2020-06-12 16:00:00 21.1 18 Oeste 35 Oeste 0 1009.1 -- 46
2020-06-12 15:00:00 20.5 15 Oeste 26 Oeste 0 1009.1 -- 47
2020-06-12 14:00:00 20.2 12 Noroeste 25 Noroeste 0 1009 -- 53
2020-06-12 13:00:00 20.1 14 Noroeste 24 Noroeste 0 1009.2 -- 57
2020-06-12 12:00:00 18.9 12 Noroeste 20 Noroeste 0 1008.9 -- 59
2020-06-12 11:00:00 18.7 6 Noroeste 18 Noroeste 0 1009 -- 65
2020-06-12 10:00:00 18.6 8 Noroeste 22 Noroeste 0 1009 -- 67
2020-06-12 09:00:00 18.4 10 Noroeste 21 Noroeste 0 1008.6 -- 71
2020-06-12 08:00:00 18.2 12 Noroeste 24 Noroeste 0 1008.4 -- 69
2020-06-12 07:00:00 17.6 11 Oeste 40 Noroeste 0 1008.1 -- 78
2020-06-12 06:00:00 18.5 18 Noroeste 28 Noroeste 0.1 1008.1 -- 77
2020-06-12 05:00:00 16.9 17 Oeste 35 Oeste 1.3 1008.2 -- 93
2020-06-12 04:00:00 18.4 21 Oeste 39 Oeste 0 1008.4 -- 86
2020-06-12 03:00:00 18.8 23 Oeste 40 Oeste 0 1008.8 -- 80
2020-06-12 02:00:00 19.2 23 Oeste 43 Oeste 0 1009.2 -- 79
2020-06-12 01:00:00 18.7 18 Oeste 44 Oeste 0 1009.9 -- 87
2020-06-12 00:00:00 19.4 32 Oeste 46 Oeste 0 1010 -- 82
2020-06-11 23:00:00 19.6 25 Oeste 48 Oeste 0 1010 -- 78
2020-06-11 22:00:00 19.6 31 Oeste 47 Oeste 0 1009.7 -- 76
2020-06-11 21:00:00 20 32 Oeste 51 Oeste 0 1010.1 -- 71
2020-06-11 20:00:00 20.5 28 Oeste 48 Oeste 0 1010.1 -- 68
2020-06-11 19:00:00 21.4 29 Oeste 46 Sudoeste 0 1010.3 -- 62
2020-06-11 18:00:00 21 25 Oeste 43 Sudoeste 0 1010.5 -- 58
2020-06-11 17:00:00 21.1 24 Oeste 45 Oeste 0 1011.1 -- 59
2020-06-11 16:00:00 20.7 22 Oeste 45 Sudoeste 0 1011.6 -- 58
2020-06-11 15:00:00 20.2 23 Oeste 36 Oeste 0 1012 -- 65
2020-06-11 14:00:00 20.5 18 Oeste 33 Oeste 0 1012.3 -- 65
2020-06-11 13:00:00 19.5 16 Oeste 26 Noroeste 0 1012.4 -- 68
2020-06-11 12:00:00 19.2 13 Oeste 23 Oeste 0 1012.5 -- 69
2020-06-11 11:00:00 19 12 Oeste 22 Oeste 0 1012.2 -- 67
2020-06-11 10:00:00 18.3 12 Noroeste 19 Noroeste 0 1012.3 -- 76
2020-06-11 09:00:00 18.8 13 Oeste 25 Sudoeste 0 1012 -- 74
2020-06-11 08:00:00 18.4 12 Sudoeste 23 Sudoeste 0 1011.9 -- 77
2020-06-11 07:00:00 18 12 Sudoeste 24 Sudoeste 0 1011.7 -- 75
2020-06-11 06:00:00 18.3 12 Oeste 29 Oeste 0 1011.8 -- 77
2020-06-11 05:00:00 18.7 12 Oeste 24 Sudoeste 0 1012 -- 78
2020-06-11 04:00:00 19.3 12 Sudoeste 23 Sudoeste 0 1012.4 -- 77
2020-06-11 03:00:00 19.4 9 Sudoeste 20 Sudoeste 0 1012.6 -- 71
2020-06-11 02:00:00 19.8 10 Sudoeste 21 Sudoeste 0 1013.1 -- 67
2020-06-11 01:00:00 19.8 9 Sudoeste 15 Oeste 0 1013.4 -- 66
2020-06-11 00:00:00 20 12 Oeste 20 Oeste 0 1013.6 -- 65
2020-06-10 23:00:00 20.4 12 Oeste 19 Oeste 0 1013.3 -- 65
2020-06-10 22:00:00 21.1 10 Oeste 26 Sudoeste 0 1012.7 -- 59
2020-06-10 21:00:00 22.3 16 Oeste 24 Oeste 0 1012.6 -- 53
2020-06-10 20:00:00 22.5 14 Oeste 26 Oeste 0 1012.5 -- 57
2020-06-10 19:00:00 22.9 15 Oeste 26 Oeste 0 1012.6 -- 58
2020-06-10 18:00:00 22.4 17 Oeste 30 Oeste 0 1012.9 -- 63
2020-06-10 17:00:00 22.2 14 Oeste 28 Oeste 0 1013.4 -- 57
2020-06-10 16:00:00 22.8 17 Oeste 29 Oeste 0 1013.5 -- 61
2020-06-10 15:00:00 22.8 13 Oeste 24 Sudoeste 0 1013.6 -- 62
2020-06-10 14:00:00 23.2 10 Sudoeste 24 Sudoeste 0 1013.7 -- 59
2020-06-10 13:00:00 23.5 10 Sudoeste 21 Sudoeste 0 1013.9 -- 58
2020-06-10 12:00:00 22.5 10 Oeste 20 Sudoeste 0 1013.7 -- 63
2020-06-10 11:00:00 21.7 6 Oeste 19 Sudoeste 0 1013.7 -- 70
2020-06-10 10:00:00 20.9 8 Sudoeste 18 Sudoeste 0 1013.6 -- 83
2020-06-10 09:00:00 19.1 4 Sudeste 11 Sudeste 0 1013.3 -- 93
2020-06-10 08:00:00 18.1 6 Sudeste 13 Sudeste 0 1012.9 -- 93
2020-06-10 07:00:00 17.3 5 Sudeste 14 Sudeste 0 1012.6 -- 93
2020-06-10 06:00:00 17.2 7 Sudeste 14 Sudeste 0 1012.5 -- 92
2020-06-10 05:00:00 17.8 7 Sudeste 12 Sur 0 1012.8 -- 91
2020-06-10 04:00:00 17.8 5 Sudeste 10 Sudeste 0 1013.2 -- 89
2020-06-10 03:00:00 18 5 Sudeste 11 Sudeste 0 1013.5 -- 87
2020-06-10 02:00:00 18.6 4 Sudeste 8 Sudeste 0 1014.1 -- 84
2020-06-10 01:00:00 19.6 0 Calma 6 Oeste 0 1014.4 -- 79
2020-06-10 00:00:00 20.2 4 Oeste 14 Oeste 0 1014.6 -- 79